sensor_id;sensor_type;location;lat;lon;timestamp;pressure;altitude;pressure_sealevel;temperature;humidity
76321;BME280;65132;52.088;5.402;2023-03-19T00:00:31;101149.81;;;11.06;92.04
76321;BME280;65132;52.088;5.402;2023-03-19T00:02:58;101144.53;;;11.05;92.04
76321;BME280;65132;52.088;5.402;2023-03-19T00:05:26;101150.66;;;11.07;92.36
76321;BME280;65132;52.088;5.402;2023-03-19T00:07:53;101156.19;;;11.05;92.54
76321;BME280;65132;52.088;5.402;2023-03-19T00:10:19;101155.22;;;11.06;92.74
76321;BME280;65132;52.088;5.402;2023-03-19T00:12:52;101151.50;;;11.07;92.63
76321;BME280;65132;52.088;5.402;2023-03-19T00:15:19;101159.63;;;11.07;92.82
76321;BME280;65132;52.088;5.402;2023-03-19T00:17:50;101145.50;;;11.04;92.81
76321;BME280;65132;52.088;5.402;2023-03-19T00:20:19;101152.53;;;11.06;92.84
76321;BME280;65132;52.088;5.402;2023-03-19T00:22:47;101156.63;;;11.01;92.87
76321;BME280;65132;52.088;5.402;2023-03-19T00:25:28;101161.31;;;10.99;92.90
76321;BME280;65132;52.088;5.402;2023-03-19T00:27:54;101163.88;;;11.00;92.88
76321;BME280;65132;52.088;5.402;2023-03-19T00:30:21;101164.75;;;10.91;93.49
76321;BME280;65132;52.088;5.402;2023-03-19T00:32:50;101166.00;;;10.87;93.68
76321;BME280;65132;52.088;5.402;2023-03-19T00:35:18;101162.13;;;10.80;94.22
76321;BME280;65132;52.088;5.402;2023-03-19T00:37:53;101159.28;;;10.81;94.17
76321;BME280;65132;52.088;5.402;2023-03-19T00:40:23;101168.13;;;10.83;94.12
76321;BME280;65132;52.088;5.402;2023-03-19T00:42:49;101169.84;;;10.84;93.82
76321;BME280;65132;52.088;5.402;2023-03-19T00:45:16;101166.25;;;10.74;94.26
76321;BME280;65132;52.088;5.402;2023-03-19T00:47:42;101170.69;;;10.85;93.43
76321;BME280;65132;52.088;5.402;2023-03-19T00:50:09;101166.56;;;10.81;93.33
76321;BME280;65132;52.088;5.402;2023-03-19T00:52:40;101170.97;;;10.72;94.47
76321;BME280;65132;52.088;5.402;2023-03-19T00:55:09;101164.81;;;10.70;93.91
76321;BME280;65132;52.088;5.402;2023-03-19T00:57:37;101163.38;;;10.66;94.01
76321;BME280;65132;52.088;5.402;2023-03-19T01:00:06;101164.38;;;10.65;94.23
76321;BME280;65132;52.088;5.402;2023-03-19T01:02:35;101162.22;;;10.59;94.39
76321;BME280;65132;52.088;5.402;2023-03-19T01:05:02;101172.59;;;10.54;94.63
76321;BME280;65132;52.088;5.402;2023-03-19T01:07:28;101176.56;;;10.50;94.57
76321;BME280;65132;52.088;5.402;2023-03-19T01:09:57;101180.53;;;10.46;94.70
76321;BME280;65132;52.088;5.402;2023-03-19T01:12:23;101178.69;;;10.47;94.51
76321;BME280;65132;52.088;5.402;2023-03-19T01:14:50;101176.69;;;10.49;94.39
76321;BME280;65132;52.088;5.402;2023-03-19T01:17:19;101176.38;;;10.42;94.48
76321;BME280;65132;52.088;5.402;2023-03-19T01:19:45;101185.56;;;10.30;94.65
76321;BME280;65132;52.088;5.402;2023-03-19T01:22:14;101176.19;;;10.34;95.11
76321;BME280;65132;52.088;5.402;2023-03-19T01:24:43;101173.56;;;10.23;95.48
76321;BME280;65132;52.088;5.402;2023-03-19T01:27:10;101167.31;;;10.23;95.43
76321;BME280;65132;52.088;5.402;2023-03-19T01:29:39;101164.63;;;10.23;95.72
76321;BME280;65132;52.088;5.402;2023-03-19T01:32:12;101156.63;;;10.21;95.34
76321;BME280;65132;52.088;5.402;2023-03-19T01:34:44;101173.97;;;10.19;95.45
76321;BME280;65132;52.088;5.402;2023-03-19T01:37:10;101179.78;;;10.14;95.70
76321;BME280;65132;52.088;5.402;2023-03-19T01:39:37;101180.91;;;10.12;95.96
76321;BME280;65132;52.088;5.402;2023-03-19T01:42:08;101175.34;;;10.13;95.93
76321;BME280;65132;52.088;5.402;2023-03-19T01:44:38;101174.38;;;10.14;95.58
76321;BME280;65132;52.088;5.402;2023-03-19T01:47:14;101173.53;;;10.14;96.19
76321;BME280;65132;52.088;5.402;2023-03-19T01:49:46;101170.81;;;10.14;96.14
76321;BME280;65132;52.088;5.402;2023-03-19T01:52:15;101167.69;;;10.18;96.09
76321;BME280;65132;52.088;5.402;2023-03-19T01:54:45;101177.28;;;10.22;95.87
76321;BME280;65132;52.088;5.402;2023-03-19T01:57:16;101176.16;;;10.25;95.83
76321;BME280;65132;52.088;5.402;2023-03-19T01:59:46;101176.16;;;10.25;96.11
76321;BME280;65132;52.088;5.402;2023-03-19T02:02:26;101182.41;;;10.25;96.26
76321;BME280;65132;52.088;5.402;2023-03-19T02:05:00;101176.63;;;10.30;95.94
76321;BME280;65132;52.088;5.402;2023-03-19T02:07:28;101184.88;;;10.28;96.16
76321;BME280;65132;52.088;5.402;2023-03-19T02:09:57;101184.13;;;10.26;96.50
76321;BME280;65132;52.088;5.402;2023-03-19T02:12:27;101174.28;;;10.25;96.51
76321;BME280;65132;52.088;5.402;2023-03-19T02:14:56;101188.97;;;10.23;96.96
76321;BME280;65132;52.088;5.402;2023-03-19T02:17:22;101184.66;;;10.20;97.24
76321;BME280;65132;52.088;5.402;2023-03-19T02:22:22;101183.13;;;10.27;96.21
76321;BME280;65132;52.088;5.402;2023-03-19T02:25:18;101192.50;;;10.23;96.80
76321;BME280;65132;52.088;5.402;2023-03-19T02:27:47;101183.94;;;10.18;97.27
76321;BME280;65132;52.088;5.402;2023-03-19T02:30:23;101183.22;;;10.16;97.14
76321;BME280;65132;52.088;5.402;2023-03-19T02:32:50;101182.38;;;10.16;96.97
76321;BME280;65132;52.088;5.402;2023-03-19T02:35:19;101186.16;;;10.13;97.04
76321;BME280;65132;52.088;5.402;2023-03-19T02:37:48;101184.41;;;10.03;97.31
76321;BME280;65132;52.088;5.402;2023-03-19T02:40:21;101184.78;;;9.98;97.94
76321;BME280;65132;52.088;5.402;2023-03-19T02:42:49;101191.56;;;9.93;98.25
76321;BME280;65132;52.088;5.402;2023-03-19T02:45:16;101181.00;;;9.90;97.99
76321;BME280;65132;52.088;5.402;2023-03-19T02:47:44;101179.31;;;9.89;97.94
76321;BME280;65132;52.088;5.402;2023-03-19T02:50:13;101191.00;;;9.89;98.07
76321;BME280;65132;52.088;5.402;2023-03-19T02:52:41;101191.00;;;9.89;97.69
76321;BME280;65132;52.088;5.402;2023-03-19T02:55:07;101194.66;;;9.88;97.73
76321;BME280;65132;52.088;5.402;2023-03-19T02:57:34;101199.34;;;9.86;97.66
76321;BME280;65132;52.088;5.402;2023-03-19T03:00:01;101198.59;;;9.84;97.95
76321;BME280;65132;52.088;5.402;2023-03-19T03:02:31;101197.63;;;9.85;97.73
76321;BME280;65132;52.088;5.402;2023-03-19T03:04:57;101193.09;;;9.86;98.28
76321;BME280;65132;52.088;5.402;2023-03-19T03:07:29;101200.19;;;9.87;98.60
76321;BME280;65132;52.088;5.402;2023-03-19T03:09:55;101197.63;;;9.85;98.28
76321;BME280;65132;52.088;5.402;2023-03-19T03:12:24;101198.38;;;9.87;98.02
76321;BME280;65132;52.088;5.402;2023-03-19T03:14:55;101199.78;;;9.91;98.76
76321;BME280;65132;52.088;5.402;2023-03-19T03:17:21;101199.44;;;9.96;98.42
76321;BME280;65132;52.088;5.402;2023-03-19T03:19:48;101205.28;;;10.01;98.76
76321;BME280;65132;52.088;5.402;2023-03-19T03:22:14;101208.09;;;10.10;98.87
76321;BME280;65132;52.088;5.402;2023-03-19T03:24:41;101194.81;;;10.07;98.68
76321;BME280;65132;52.088;5.402;2023-03-19T03:27:07;101205.50;;;10.09;98.75
76321;BME280;65132;52.088;5.402;2023-03-19T03:29:34;101206.38;;;10.09;98.79
76321;BME280;65132;52.088;5.402;2023-03-19T03:32:00;101210.50;;;10.13;98.89
76321;BME280;65132;52.088;5.402;2023-03-19T03:34:27;101210.66;;;10.12;98.79
76321;BME280;65132;52.088;5.402;2023-03-19T03:36:53;101202.69;;;10.10;98.93
76321;BME280;65132;52.088;5.402;2023-03-19T03:39:19;101197.41;;;10.09;99.15
76321;BME280;65132;52.088;5.402;2023-03-19T03:41:46;101195.44;;;10.11;98.94
76321;BME280;65132;52.088;5.402;2023-03-19T03:44:12;101210.78;;;10.10;98.82
76321;BME280;65132;52.088;5.402;2023-03-19T03:46:39;101213.63;;;10.09;99.11
76321;BME280;65132;52.088;5.402;2023-03-19T03:49:05;101212.25;;;10.03;98.67
76321;BME280;65132;52.088;5.402;2023-03-19T03:51:32;101218.06;;;9.99;98.56
76321;BME280;65132;52.088;5.402;2023-03-19T03:53:58;101205.81;;;9.95;99.40
76321;BME280;65132;52.088;5.402;2023-03-19T03:56:25;101208.63;;;9.93;98.91
76321;BME280;65132;52.088;5.402;2023-03-19T03:58:51;101203.91;;;9.86;99.06
76321;BME280;65132;52.088;5.402;2023-03-19T04:01:19;101212.13;;;9.84;99.14
76321;BME280;65132;52.088;5.402;2023-03-19T04:03:45;101204.69;;;9.77;99.41
76321;BME280;65132;52.088;5.402;2023-03-19T04:06:14;101207.06;;;9.70;99.60
76321;BME280;65132;52.088;5.402;2023-03-19T04:08:42;101206.31;;;9.68;99.66
76321;BME280;65132;52.088;5.402;2023-03-19T04:11:08;101202.28;;;9.62;100.00
76321;BME280;65132;52.088;5.402;2023-03-19T04:13:35;101208.09;;;9.58;100.00
76321;BME280;65132;52.088;5.402;2023-03-19T04:16:08;101212.41;;;9.49;100.00
76321;BME280;65132;52.088;5.402;2023-03-19T04:18:39;101203.25;;;9.41;100.00
76321;BME280;65132;52.088;5.402;2023-03-19T04:21:06;101201.41;;;9.41;100.00
76321;BME280;65132;52.088;5.402;2023-03-19T04:23:32;101209.50;;;9.41;100.00
76321;BME280;65132;52.088;5.402;2023-03-19T04:26:03;101212.97;;;9.32;100.00
76321;BME280;65132;52.088;5.402;2023-03-19T04:28:31;101212.34;;;9.29;100.00
76321;BME280;65132;52.088;5.402;2023-03-19T04:31:05;101208.84;;;9.17;100.00
76321;BME280;65132;52.088;5.402;2023-03-19T04:33:32;101218.63;;;9.18;100.00
76321;BME280;65132;52.088;5.402;2023-03-19T04:35:59;101205.53;;;9.14;99.98
76321;BME280;65132;52.088;5.402;2023-03-19T04:38:26;101212.03;;;9.11;99.81
76321;BME280;65132;52.088;5.402;2023-03-19T04:40:53;101213.63;;;9.14;99.68
76321;BME280;65132;52.088;5.402;2023-03-19T04:43:23;101222.94;;;9.10;99.96
76321;BME280;65132;52.088;5.402;2023-03-19T04:45:51;101217.69;;;9.08;100.00
76321;BME280;65132;52.088;5.402;2023-03-19T04:48:18;101215.13;;;9.07;99.79
76321;BME280;65132;52.088;5.402;2023-03-19T04:50:44;101216.59;;;9.00;99.94
76321;BME280;65132;52.088;5.402;2023-03-19T04:53:11;101209.97;;;9.04;100.00
76321;BME280;65132;52.088;5.402;2023-03-19T04:55:41;101210.19;;;9.01;100.00
76321;BME280;65132;52.088;5.402;2023-03-19T04:58:08;101217.94;;;8.94;100.00
76321;BME280;65132;52.088;5.402;2023-03-19T05:00:38;101207.28;;;8.93;100.00
76321;BME280;65132;52.088;5.402;2023-03-19T05:03:05;101217.72;;;8.86;99.95
76321;BME280;65132;52.088;5.402;2023-03-19T05:05:32;101228.03;;;8.81;100.00
76321;BME280;65132;52.088;5.402;2023-03-19T05:08:03;101235.03;;;8.73;100.00
76321;BME280;65132;52.088;5.402;2023-03-19T05:10:34;101239.94;;;8.68;100.00
76321;BME280;65132;52.088;5.402;2023-03-19T05:13:02;101248.28;;;8.65;99.77
76321;BME280;65132;52.088;5.402;2023-03-19T05:15:28;101250.47;;;8.60;100.00
76321;BME280;65132;52.088;5.402;2023-03-19T05:17:55;101251.19;;;8.51;99.44
76321;BME280;65132;52.088;5.402;2023-03-19T05:20:21;101259.53;;;8.48;100.00
76321;BME280;65132;52.088;5.402;2023-03-19T05:22:52;101258.53;;;8.37;100.00
76321;BME280;65132;52.088;5.402;2023-03-19T05:25:20;101254.25;;;8.35;100.00
76321;BME280;65132;52.088;5.402;2023-03-19T05:27:48;101261.72;;;8.31;100.00
76321;BME280;65132;52.088;5.402;2023-03-19T05:30:18;101259.25;;;8.39;100.00
76321;BME280;65132;52.088;5.402;2023-03-19T05:32:52;101255.22;;;8.45;100.00
76321;BME280;65132;52.088;5.402;2023-03-19T05:35:20;101259.03;;;8.42;100.00
76321;BME280;65132;52.088;5.402;2023-03-19T05:37:49;101263.19;;;8.35;100.00
76321;BME280;65132;52.088;5.402;2023-03-19T05:40:16;101268.94;;;8.31;100.00
76321;BME280;65132;52.088;5.402;2023-03-19T05:42:42;101269.91;;;8.30;100.00
76321;BME280;65132;52.088;5.402;2023-03-19T05:45:09;101272.75;;;8.28;100.00
76321;BME280;65132;52.088;5.402;2023-03-19T05:47:36;101285.00;;;8.32;100.00
76321;BME280;65132;52.088;5.402;2023-03-19T05:50:02;101276.31;;;8.29;100.00
76321;BME280;65132;52.088;5.402;2023-03-19T05:52:29;101283.66;;;8.27;100.00
76321;BME280;65132;52.088;5.402;2023-03-19T05:54:55;101280.81;;;8.28;100.00
76321;BME280;65132;52.088;5.402;2023-03-19T05:57:24;101282.66;;;8.28;100.00
76321;BME280;65132;52.088;5.402;2023-03-19T05:59:53;101285.09;;;8.31;100.00
76321;BME280;65132;52.088;5.402;2023-03-19T06:02:19;101298.50;;;8.32;100.00
76321;BME280;65132;52.088;5.402;2023-03-19T06:04:46;101296.13;;;8.28;100.00
76321;BME280;65132;52.088;5.402;2023-03-19T06:07:14;101309.06;;;8.23;100.00
76321;BME280;65132;52.088;5.402;2023-03-19T06:09:44;101300.66;;;8.27;100.00
76321;BME280;65132;52.088;5.402;2023-03-19T06:12:10;101297.88;;;8.29;100.00
76321;BME280;65132;52.088;5.402;2023-03-19T06:14:37;101305.84;;;8.30;100.00
76321;BME280;65132;52.088;5.402;2023-03-19T06:17:03;101312.69;;;8.23;100.00
76321;BME280;65132;52.088;5.402;2023-03-19T06:19:29;101311.78;;;8.23;100.00
76321;BME280;65132;52.088;5.402;2023-03-19T06:21:57;101310.06;;;8.22;100.00
76321;BME280;65132;52.088;5.402;2023-03-19T06:24:27;101321.03;;;8.31;100.00
76321;BME280;65132;52.088;5.402;2023-03-19T06:26:54;101320.53;;;8.26;100.00
76321;BME280;65132;52.088;5.402;2023-03-19T06:29:21;101318.94;;;8.24;100.00
76321;BME280;65132;52.088;5.402;2023-03-19T06:31:47;101321.28;;;8.28;100.00
76321;BME280;65132;52.088;5.402;2023-03-19T06:34:17;101326.41;;;8.31;100.00
76321;BME280;65132;52.088;5.402;2023-03-19T06:36:43;101323.97;;;8.28;100.00
76321;BME280;65132;52.088;5.402;2023-03-19T06:39:10;101325.47;;;8.32;100.00
76321;BME280;65132;52.088;5.402;2023-03-19T06:41:41;101322.28;;;8.38;100.00
76321;BME280;65132;52.088;5.402;2023-03-19T06:44:08;101330.75;;;8.45;100.00
76321;BME280;65132;52.088;5.402;2023-03-19T06:46:34;101335.44;;;8.65;100.00
76321;BME280;65132;52.088;5.402;2023-03-19T06:49:01;101330.28;;;8.62;100.00
76321;BME280;65132;52.088;5.402;2023-03-19T06:51:27;101331.91;;;8.65;100.00
76321;BME280;65132;52.088;5.402;2023-03-19T06:54:04;101326.88;;;8.71;100.00
76321;BME280;65132;52.088;5.402;2023-03-19T06:56:30;101335.47;;;8.76;100.00
76321;BME280;65132;52.088;5.402;2023-03-19T06:58:56;101343.19;;;8.81;100.00
76321;BME280;65132;52.088;5.402;2023-03-19T07:01:23;101346.66;;;8.94;100.00
76321;BME280;65132;52.088;5.402;2023-03-19T07:03:55;101350.84;;;9.09;99.38
76321;BME280;65132;52.088;5.402;2023-03-19T07:06:22;101347.38;;;9.18;98.36
76321;BME280;65132;52.088;5.402;2023-03-19T07:08:48;101346.75;;;9.14;98.90
76321;BME280;65132;52.088;5.402;2023-03-19T07:11:15;101354.38;;;9.09;99.19
76321;BME280;65132;52.088;5.402;2023-03-19T07:13:45;101359.78;;;8.98;99.70
76321;BME280;65132;52.088;5.402;2023-03-19T07:16:12;101362.84;;;8.94;100.00
76321;BME280;65132;52.088;5.402;2023-03-19T07:18:41;101369.38;;;9.02;100.00
76321;BME280;65132;52.088;5.402;2023-03-19T07:21:10;101359.41;;;8.92;100.00
76321;BME280;65132;52.088;5.402;2023-03-19T07:23:36;101362.47;;;8.98;100.00
76321;BME280;65132;52.088;5.402;2023-03-19T07:26:07;101364.94;;;9.12;99.95
76321;BME280;65132;52.088;5.402;2023-03-19T07:28:35;101364.56;;;9.28;98.95
76321;BME280;65132;52.088;5.402;2023-03-19T07:31:04;101380.66;;;9.29;98.16
76321;BME280;65132;52.088;5.402;2023-03-19T07:33:31;101382.72;;;9.15;98.53
76321;BME280;65132;52.088;5.402;2023-03-19T07:35:58;101394.16;;;9.18;98.30
76321;BME280;65132;52.088;5.402;2023-03-19T07:38:24;101385.47;;;9.26;97.63
76321;BME280;65132;52.088;5.402;2023-03-19T07:40:51;101400.19;;;9.11;98.11
76321;BME280;65132;52.088;5.402;2023-03-19T07:43:29;101399.06;;;9.02;98.45
76321;BME280;65132;52.088;5.402;2023-03-19T07:45:59;101405.50;;;8.89;99.59
76321;BME280;65132;52.088;5.402;2023-03-19T07:48:28;101407.38;;;8.99;98.68
76321;BME280;65132;52.088;5.402;2023-03-19T07:50:55;101405.31;;;9.03;97.67
76321;BME280;65132;52.088;5.402;2023-03-19T07:53:21;101419.41;;;8.95;97.78
76321;BME280;65132;52.088;5.402;2023-03-19T07:55:48;101428.97;;;8.99;97.58
76321;BME280;65132;52.088;5.402;2023-03-19T07:58:17;101418.91;;;8.90;97.93
76321;BME280;65132;52.088;5.402;2023-03-19T08:00:43;101425.91;;;8.93;98.13
76321;BME280;65132;52.088;5.402;2023-03-19T08:03:11;101426.03;;;8.91;99.05
76321;BME280;65132;52.088;5.402;2023-03-19T08:05:41;101433.88;;;8.94;99.31
76321;BME280;65132;52.088;5.402;2023-03-19T08:08:08;101422.34;;;8.92;99.50
76321;BME280;65132;52.088;5.402;2023-03-19T08:10:40;101427.66;;;9.05;98.79
76321;BME280;65132;52.088;5.402;2023-03-19T08:13:07;101421.53;;;9.14;97.92
76321;BME280;65132;52.088;5.402;2023-03-19T08:15:35;101428.75;;;9.13;98.45
76321;BME280;65132;52.088;5.402;2023-03-19T08:18:08;101430.50;;;9.25;97.63
76321;BME280;65132;52.088;5.402;2023-03-19T08:20:34;101433.56;;;9.21;98.17
76321;BME280;65132;52.088;5.402;2023-03-19T08:23:02;101436.63;;;9.38;98.07
76321;BME280;65132;52.088;5.402;2023-03-19T08:25:32;101440.44;;;9.47;97.44
76321;BME280;65132;52.088;5.402;2023-03-19T08:33:20;101452.59;;;9.75;95.72
76321;BME280;65132;52.088;5.402;2023-03-19T08:36:03;101451.00;;;9.61;96.71
76321;BME280;65132;52.088;5.402;2023-03-19T08:38:31;101449.88;;;9.75;95.88
76321;BME280;65132;52.088;5.402;2023-03-19T08:41:01;101456.13;;;9.86;94.92
76321;BME280;65132;52.088;5.402;2023-03-19T08:43:32;101452.81;;;9.83;94.19
76321;BME280;65132;52.088;5.402;2023-03-19T08:46:06;101465.84;;;9.89;94.14
76321;BME280;65132;52.088;5.402;2023-03-19T08:48:36;101462.19;;;9.79;93.39
76321;BME280;65132;52.088;5.402;2023-03-19T08:51:05;101462.16;;;9.90;93.90
76321;BME280;65132;52.088;5.402;2023-03-19T08:53:36;101467.59;;;9.79;93.54
76321;BME280;65132;52.088;5.402;2023-03-19T08:56:05;101462.03;;;9.91;93.73
76321;BME280;65132;52.088;5.402;2023-03-19T08:58:32;101461.81;;;9.83;93.17
76321;BME280;65132;52.088;5.402;2023-03-19T09:01:07;101465.22;;;10.07;92.79
76321;BME280;65132;52.088;5.402;2023-03-19T09:03:37;101471.34;;;10.31;91.89
76321;BME280;65132;52.088;5.402;2023-03-19T09:06:06;101472.56;;;10.38;90.76
76321;BME280;65132;52.088;5.402;2023-03-19T09:08:33;101462.69;;;10.48;89.77
76321;BME280;65132;52.088;5.402;2023-03-19T09:11:03;101468.75;;;10.30;90.30
76321;BME280;65132;52.088;5.402;2023-03-19T09:13:31;101483.97;;;10.42;90.42
76321;BME280;65132;52.088;5.402;2023-03-19T09:16:06;101482.72;;;10.46;89.67
76321;BME280;65132;52.088;5.402;2023-03-19T09:18:33;101487.78;;;10.39;90.23
76321;BME280;65132;52.088;5.402;2023-03-19T09:21:02;101485.97;;;10.07;93.10
76321;BME280;65132;52.088;5.402;2023-03-19T09:23:29;101483.66;;;10.24;93.34
76321;BME280;65132;52.088;5.402;2023-03-19T09:25:57;101486.22;;;10.15;92.13
76321;BME280;65132;52.088;5.402;2023-03-19T09:28:27;101493.88;;;10.10;91.80
76321;BME280;65132;52.088;5.402;2023-03-19T09:30:54;101488.09;;;9.92;93.06
76321;BME280;65132;52.088;5.402;2023-03-19T09:33:25;101495.06;;;10.28;91.09
76321;BME280;65132;52.088;5.402;2023-03-19T09:35:52;101491.00;;;10.33;90.63
76321;BME280;65132;52.088;5.402;2023-03-19T09:38:21;101496.91;;;10.27;91.62
76321;BME280;65132;52.088;5.402;2023-03-19T09:40:53;101511.44;;;10.26;91.42
76321;BME280;65132;52.088;5.402;2023-03-19T09:43:41;101504.94;;;10.18;92.02
76321;BME280;65132;52.088;5.402;2023-03-19T09:46:24;101519.78;;;10.34;91.60
76321;BME280;65132;52.088;5.402;2023-03-19T09:49:43;101521.00;;;10.30;91.53
76321;BME280;65132;52.088;5.402;2023-03-19T09:51:52;101522.34;;;10.47;90.88
76321;BME280;65132;52.088;5.402;2023-03-19T09:54:49;101517.81;;;10.36;90.70
76321;BME280;65132;52.088;5.402;2023-03-19T09:57:28;101525.78;;;10.38;91.07
76321;BME280;65132;52.088;5.402;2023-03-19T10:00:00;101525.53;;;10.41;91.33
76321;BME280;65132;52.088;5.402;2023-03-19T10:02:42;101527.03;;;10.34;91.92
76321;BME280;65132;52.088;5.402;2023-03-19T10:05:22;101535.44;;;10.20;92.32
76321;BME280;65132;52.088;5.402;2023-03-19T10:11:02;101544.91;;;10.14;92.72
76321;BME280;65132;52.088;5.402;2023-03-19T10:16:24;101540.41;;;10.35;92.69
76321;BME280;65132;52.088;5.402;2023-03-19T10:18:54;101540.28;;;10.37;93.16
76321;BME280;65132;52.088;5.402;2023-03-19T10:21:48;101548.31;;;10.38;91.91
76321;BME280;65132;52.088;5.402;2023-03-19T10:24:38;101556.16;;;10.41;91.33
76321;BME280;65132;52.088;5.402;2023-03-19T10:27:08;101557.03;;;10.42;91.98
76321;BME280;65132;52.088;5.402;2023-03-19T10:29:37;101543.84;;;10.48;92.34
76321;BME280;65132;52.088;5.402;2023-03-19T10:32:20;101555.50;;;10.60;91.72
76321;BME280;65132;52.088;5.402;2023-03-19T10:34:53;101551.66;;;10.73;90.96
76321;BME280;65132;52.088;5.402;2023-03-19T10:37:29;101549.13;;;10.93;89.48
76321;BME280;65132;52.088;5.402;2023-03-19T10:39:59;101555.47;;;11.03;89.09
76321;BME280;65132;52.088;5.402;2023-03-19T10:45:30;101560.56;;;10.96;88.62
76321;BME280;65132;52.088;5.402;2023-03-19T10:48:00;101559.75;;;11.05;88.92
76321;BME280;65132;52.088;5.402;2023-03-19T10:50:34;101566.13;;;10.95;88.02
76321;BME280;65132;52.088;5.402;2023-03-19T10:55:53;101565.09;;;10.96;88.75
76321;BME280;65132;52.088;5.402;2023-03-19T10:58:27;101573.53;;;10.81;89.72
76321;BME280;65132;52.088;5.402;2023-03-19T11:01:08;101577.09;;;10.82;88.82
76321;BME280;65132;52.088;5.402;2023-03-19T11:03:54;101576.03;;;10.62;90.59
76321;BME280;65132;52.088;5.402;2023-03-19T11:06:25;101587.13;;;10.59;90.55
76321;BME280;65132;52.088;5.402;2023-03-19T11:11:47;101593.13;;;10.74;90.64
76321;BME280;65132;52.088;5.402;2023-03-19T11:14:30;101599.75;;;10.81;90.83
76321;BME280;65132;52.088;5.402;2023-03-19T11:19:57;101603.34;;;10.59;90.09
76321;BME280;65132;52.088;5.402;2023-03-19T11:22:27;101605.72;;;10.53;90.42
76321;BME280;65132;52.088;5.402;2023-03-19T11:24:59;101594.88;;;10.53;90.77
76321;BME280;65132;52.088;5.402;2023-03-19T11:27:31;101591.44;;;10.62;91.31
76321;BME280;65132;52.088;5.402;2023-03-19T11:30:02;101583.91;;;10.65;91.03
76321;BME280;65132;52.088;5.402;2023-03-19T11:36:05;101594.63;;;10.56;90.10
76321;BME280;65132;52.088;5.402;2023-03-19T11:38:27;101599.19;;;10.55;90.93
76321;BME280;65132;52.088;5.402;2023-03-19T11:47:18;101600.66;;;10.59;91.49
76321;BME280;65132;52.088;5.402;2023-03-19T11:50:24;101596.72;;;10.63;90.60
76321;BME280;65132;52.088;5.402;2023-03-19T12:11:52;101601.44;;;10.50;89.75
76321;BME280;65132;52.088;5.402;2023-03-19T12:22:24;101601.91;;;10.98;90.31
76321;BME280;65132;52.088;5.402;2023-03-19T12:28:21;101596.78;;;11.16;88.88
76321;BME280;65132;52.088;5.402;2023-03-19T12:33:41;101600.13;;;11.40;87.83
76321;BME280;65132;52.088;5.402;2023-03-19T12:36:23;101591.69;;;11.54;87.41
76321;BME280;65132;52.088;5.402;2023-03-19T12:39:01;101600.59;;;11.45;87.48
76321;BME280;65132;52.088;5.402;2023-03-19T12:41:39;101613.97;;;11.57;86.76
76321;BME280;65132;52.088;5.402;2023-03-19T12:44:27;101619.66;;;11.75;85.57
76321;BME280;65132;52.088;5.402;2023-03-19T12:47:09;101611.88;;;11.81;87.29
76321;BME280;65132;52.088;5.402;2023-03-19T12:49:43;101622.44;;;12.05;84.95
76321;BME280;65132;52.088;5.402;2023-03-19T12:52:30;101620.63;;;12.15;81.74
76321;BME280;65132;52.088;5.402;2023-03-19T12:57:58;101611.78;;;12.53;81.06
76321;BME280;65132;52.088;5.402;2023-03-19T13:00:35;101609.75;;;12.45;81.26
76321;BME280;65132;52.088;5.402;2023-03-19T13:03:27;101615.59;;;12.99;79.92
76321;BME280;65132;52.088;5.402;2023-03-19T13:06:07;101619.53;;;13.16;78.82
76321;BME280;65132;52.088;5.402;2023-03-19T13:08:39;101613.06;;;13.07;78.79
76321;BME280;65132;52.088;5.402;2023-03-19T13:16:42;101632.47;;;12.93;77.55
76321;BME280;65132;52.088;5.402;2023-03-19T13:19:40;101624.31;;;12.93;78.83
76321;BME280;65132;52.088;5.402;2023-03-19T13:22:12;101620.88;;;12.82;79.38
76321;BME280;65132;52.088;5.402;2023-03-19T13:24:41;101625.31;;;12.43;81.29
76321;BME280;65132;52.088;5.402;2023-03-19T13:27:18;101616.53;;;12.30;82.79
76321;BME280;65132;52.088;5.402;2023-03-19T13:37:46;101608.53;;;15.98;67.13
76321;BME280;65132;52.088;5.402;2023-03-19T13:40:48;101613.06;;;15.90;67.18
76321;BME280;65132;52.088;5.402;2023-03-19T13:51:27;101628.25;;;14.13;72.54
76321;BME280;65132;52.088;5.402;2023-03-19T13:54:11;101626.22;;;14.34;71.43
76321;BME280;65132;52.088;5.402;2023-03-19T13:59:26;101617.72;;;14.01;72.73
76321;BME280;65132;52.088;5.402;2023-03-19T14:01:54;101623.03;;;14.39;72.05
76321;BME280;65132;52.088;5.402;2023-03-19T14:04:33;101626.94;;;13.71;73.73
76321;BME280;65132;52.088;5.402;2023-03-19T14:09:48;101618.59;;;16.31;64.95
76321;BME280;65132;52.088;5.402;2023-03-19T14:17:40;101605.63;;;17.25;60.76
76321;BME280;65132;52.088;5.402;2023-03-19T14:23:01;101614.66;;;15.75;64.88
76321;BME280;65132;52.088;5.402;2023-03-19T14:28:37;101619.81;;;15.60;65.31
76321;BME280;65132;52.088;5.402;2023-03-19T14:31:05;101630.06;;;15.40;67.21
76321;BME280;65132;52.088;5.402;2023-03-19T14:33:42;101632.84;;;14.59;68.92
76321;BME280;65132;52.088;5.402;2023-03-19T14:36:17;101631.63;;;14.44;70.89
76321;BME280;65132;52.088;5.402;2023-03-19T14:38:57;101626.13;;;14.26;69.49
76321;BME280;65132;52.088;5.402;2023-03-19T14:41:27;101636.69;;;14.20;70.26
76321;BME280;65132;52.088;5.402;2023-03-19T14:53:00;101636.25;;;13.69;73.02
76321;BME280;65132;52.088;5.402;2023-03-19T14:55:36;101642.66;;;13.87;73.14
76321;BME280;65132;52.088;5.402;2023-03-19T14:58:04;101636.50;;;13.85;72.36
76321;BME280;65132;52.088;5.402;2023-03-19T15:00:44;101641.75;;;14.05;72.50
76321;BME280;65132;52.088;5.402;2023-03-19T15:05:59;101635.16;;;14.54;70.28
76321;BME280;65132;52.088;5.402;2023-03-19T15:08:30;101628.97;;;14.62;70.47
76321;BME280;65132;52.088;5.402;2023-03-19T15:16:53;101617.19;;;14.61;69.45